Afton, OK

8:21 AM CDT on March 29, 2015 (GMT -0500)
Blue Heron Cove, Patricia Island, Grove,OK | | Change Station
CLOSE
Current Station
Personal Weather Station
Location: Grove, OK
Elevation: 774 ft
Nearby Weather Stations

Elev 774 ft 36.59 °N, 94.84 °W | Updated 1 minute ago

Clear
Clear
50.4 °F
Feels Like 50.4 °F
N
6.9
Wind Variable Wind from NNE
Gusts 6.9 mph

Today
High -- | Low -- °F
--% Chance of Precip.
Yesterday
High -- | Low -- °F
Precip. -- in
7:10 AM 7:38 PM
Waxing Gibbous, 71% visible
Pressure 30.00 in
Visibility 10.0 miles
Clouds Clear
Dew Point 38 °F
Humidity 63%
Rainfall 0.00 in
Snow Depth Not available.
UV 1 out of 12
Pollen 10.10 out of 12
Air Quality Not available.
Flu Activity Not available.
METAR KGMJ 291315Z AUTO 15006KT 10SM CLR 09/02 A3000 RMK AO2

More Conditions Fewer Conditions

Pressure 30.00 in
Visibility 10.0 miles
Clouds Clear
Dew Point 38 °F
Humidity 63%
Rainfall 0.00 in
Snow Depth Not available.
UV 1 out of 12
Pollen 10.10 out of 12
Air Quality Not available.
Flu Activity Not available.
METAR KGMJ 291315Z AUTO 15006KT 10SM CLR 09/02 A3000 RMK AO2

More Conditions Fewer Conditions

10-Day Weather Forecast

Almanac

Astronomy

Mar. 29, 2015 Rise Set
Actual Time
Civil Twilight
Nautical Twilight
Astronomical Twilight
Moon
Length of Visible Light
Length of Day
Tomorrow will be .
, % of the Moon is Illuminated

Today's Extremes

State Highs State Lows

Community

WunderPhotos

Upload Photos

1,809,233 photos uploaded!

WunderBlogs® & News

Nearby

Air Quality

  Air Quality AQ Index Pollutant
Not available.

Snow Depth

Station Depth Elevation

Earthquake Activity

City Distance Mag. Time & Date
Minimum magnitude displayed is 2.5.

Coastal Water Temperatures

Place Temperature

Stations

Nearby Weather Stations

Station Location Temp. Windchill Dew Point Humidity Wind Precip. Elev Updated Type